< < Back
Terminal Aerodrome Forecast


Current Version              Previous Versions:   1  2  3  4  5  6  7  8  9  

Terminal Aerodrome Forecast

506
FTUS42 KFFC 261121
TAFATL
TAF
KATL 261121Z 2612/2718 08012KT P6SM SCT018
      TEMPO 2612/2614 BKN018
     FM261400 09012KT P6SM SCT025 SCT120
     FM261600 10010KT P6SM SCT040
     FM270200 14005KT P6SM SCT070 BKN250
     FM271500 20005KT P6SM SCT030=

Latest METAR

606
SAUS70 KWBC 261700 RRG
MTRATL
METAR KATL 261652Z 12008KT 10SM SCT035 BKN090 31/21 A3017 RMK AO2 SLP203
CB DSNT NW T03110206


USA.gov is the U.S. government's official web portal to all federal, state and local government web resources and services.